Time;durP1;ratioP1;P1;durP2;ratioP2;P2;SDS_P1;SDS_P2;PMS_P1;PMS_P2;Temp;Humidity;BMP_temperature;BMP_pressure;BME280_temperature;BME280_humidity;BME280_pressure;Samples;Min_cycle;Max_cycle;Signal;HPM_P1;HPM_P2
2021/05/15 00:01:55;;;;;;;;;;;;;;;12.62;100.00;99664.86;1781235;81;20182;-81
2021/05/15 00:04:24;;;;;;;;;;;;;;;12.67;100.00;99656.15;1781955;79;20510;-81
2021/05/15 00:06:52;;;;;;;;;;;;;;;12.70;100.00;99644.92;1782876;81;20165;-81
2021/05/15 00:09:20;;;;;;;;;;;;;;;12.70;100.00;99638.97;1782252;81;20169;-82
2021/05/15 00:11:47;;;;;;;;;;;;;;;12.70;100.00;99639.49;1781182;81;20185;-82
2021/05/15 00:14:14;;;;;;;;;;;;;;;12.66;100.00;99633.62;1781799;81;20451;-82
2021/05/15 00:16:40;;;;;;;;;;;;;;;12.63;100.00;99616.89;1780507;81;20153;-82
2021/05/15 00:19:07;;;;;;;;;;;;;;;12.57;100.00;99614.45;1773354;80;20166;-81
2021/05/15 00:21:35;;;;;;;;;;;;;;;12.52;100.00;99607.41;1782594;81;20154;-83
2021/05/15 00:24:02;;;;;;;;;;;;;;;12.47;100.00;99608.51;1781224;81;20181;-82
2021/05/15 00:26:29;;;;;;;;;;;;;;;12.42;100.00;99619.09;1782681;81;20162;-81
2021/05/15 00:28:56;;;;;;;;;;;;;;;12.35;100.00;99622.56;1783366;81;20176;-81
2021/05/15 00:31:22;;;;;;;;;;;;;;;12.29;100.00;99627.94;1781986;81;20146;-82
2021/05/15 00:33:51;;;;;;;;;;;;;;;12.23;100.00;99631.40;1780889;81;20278;-81
2021/05/15 00:36:17;;;;;;;;;;;;;;;12.15;100.00;99635.91;1780530;81;20138;-83
2021/05/15 00:38:44;;;;;;;;;;;;;;;12.10;100.00;99651.90;1780675;81;20311;-82
2021/05/15 00:41:11;;;;;;;;;;;;;;;12.07;100.00;99652.80;1781461;81;20178;-83
2021/05/15 00:43:45;;;;;;;;;;;;;;;12.04;100.00;99653.17;1780522;81;20149;-81
2021/05/15 00:46:05;;;;;;;;;;;;;;;12.04;100.00;99654.03;1785159;80;20177;-82
2021/05/15 00:48:34;;;;;;;;;;;;;;;12.09;100.00;99652.08;1781165;79;20173;-81
2021/05/15 00:51:02;;;;;;;;;;;;;;;12.13;100.00;99654.77;1780603;81;20162;-84
2021/05/15 00:53:29;;;;;;;;;;;;;;;12.16;100.00;99653.00;1781269;81;20181;-81
2021/05/15 00:55:55;;;;;;;;;;;;;;;12.17;100.00;99652.51;1782511;81;20142;-82
2021/05/15 00:58:23;;;;;;;;;;;;;;;12.17;100.00;99651.16;1780583;80;20130;-82
2021/05/15 01:00:49;;;;;;;;;;;;;;;12.15;100.00;99656.77;1781740;81;20189;-82
2021/05/15 01:03:16;;;;;;;;;;;;;;;12.12;100.00;99663.38;1781791;81;20141;-83
2021/05/15 01:05:43;;;;;;;;;;;;;;;12.10;100.00;99662.73;1782256;81;20506;-81
2021/05/15 01:08:09;;;;;;;;;;;;;;;12.11;100.00;99666.28;1783122;81;20160;-81
2021/05/15 01:10:36;;;;;;;;;;;;;;;12.09;100.00;99662.44;1783292;80;20206;-81
2021/05/15 01:13:02;;;;;;;;;;;;;;;12.11;100.00;99666.28;1783171;81;20241;-82
2021/05/15 01:15:31;;;;;;;;;;;;;;;12.11;100.00;99668.50;1783338;81;20158;-82
2021/05/15 01:17:58;;;;;;;;;;;;;;;12.10;100.00;99667.33;1783203;79;20150;-82
2021/05/15 01:20:27;;;;;;;;;;;;;;;12.10;100.00;99663.27;1783042;81;20163;-82
2021/05/15 01:22:55;;;;;;;;;;;;;;;12.07;100.00;99656.34;1783086;80;20495;-82
2021/05/15 01:25:22;;;;;;;;;;;;;;;12.05;100.00;99655.69;1783473;80;20160;-82
2021/05/15 01:27:49;;;;;;;;;;;;;;;12.02;100.00;99661.48;1783400;80;20159;-79
2021/05/15 01:30:16;;;;;;;;;;;;;;;12.01;100.00;99669.30;1783231;80;20163;-83
2021/05/15 01:32:44;;;;;;;;;;;;;;;11.98;100.00;99667.48;1761566;81;20164;-81
2021/05/15 01:35:11;;;;;;;;;;;;;;;11.96;100.00;99661.73;1783287;81;20187;-84
2021/05/15 01:37:41;;;;;;;;;;;;;;;11.95;100.00;99656.50;1783094;80;20448;-82
2021/05/15 01:40:08;;;;;;;;;;;;;;;11.93;100.00;99659.42;1783030;81;20144;-81
2021/05/15 01:42:36;;;;;;;;;;;;;;;11.92;100.00;99655.55;1783360;80;20172;-82
2021/05/15 01:45:05;;;;;;;;;;;;;;;11.92;100.00;99654.19;1783094;81;20143;-82
2021/05/15 01:47:36;;;;;;;;;;;;;;;11.92;100.00;99651.48;1783043;81;20160;-84
2021/05/15 01:50:06;;;;;;;;;;;;;;;11.92;100.00;99640.64;1783036;81;20179;-83
2021/05/15 01:52:33;;;;;;;;;;;;;;;11.91;100.00;99636.24;1783048;81;20183;-82
2021/05/15 01:55:02;;;;;;;;;;;;;;;11.89;100.00;99637.75;1783042;80;20144;-83
2021/05/15 01:57:29;;;;;;;;;;;;;;;11.87;100.00;99632.20;1783145;80;20143;-83
2021/05/15 01:59:55;;;;;;;;;;;;;;;11.83;100.00;99626.83;1783377;80;20171;-82
2021/05/15 02:02:22;;;;;;;;;;;;;;;11.77;100.00;99625.23;1783505;81;20131;-84
2021/05/15 02:04:49;;;;;;;;;;;;;;;11.73;100.00;99630.67;1784511;80;20139;-82
2021/05/15 02:07:17;;;;;;;;;;;;;;;11.71;100.00;99631.38;1784312;80;20164;-82
2021/05/15 02:09:44;;;;;;;;;;;;;;;11.69;100.00;99631.26;1789484;80;20163;-82
2021/05/15 02:12:11;;;;;;;;;;;;;;;11.67;100.00;99631.44;1785005;80;20163;-83
2021/05/15 02:14:38;;;;;;;;;;;;;;;11.64;100.00;99628.27;1783576;80;20208;-83
2021/05/15 02:17:05;;;;;;;;;;;;;;;11.62;100.00;99631.69;1784774;80;20147;-84
2021/05/15 02:19:32;;;;;;;;;;;;;;;11.57;100.00;99627.66;1786284;80;20151;-82
2021/05/15 02:21:58;;;;;;;;;;;;;;;11.58;100.00;99629.87;1782964;81;20184;-81
2021/05/15 02:24:25;;;;;;;;;;;;;;;11.58;100.00;99623.92;1783479;81;20509;-82
2021/05/15 02:26:52;;;;;;;;;;;;;;;11.59;100.00;99626.11;1783423;81;20151;-83
2021/05/15 02:29:19;;;;;;;;;;;;;;;11.61;100.00;99631.34;1783436;81;20481;-84
2021/05/15 02:31:47;;;;;;;;;;;;;;;11.62;100.00;99636.58;1783707;81;20152;-84
2021/05/15 02:34:13;;;;;;;;;;;;;;;11.64;100.00;99641.29;1762191;81;20183;-84
2021/05/15 02:36:44;;;;;;;;;;;;;;;11.65;100.00;99649.75;1783979;80;20171;-82
2021/05/15 02:39:12;;;;;;;;;;;;;;;11.68;100.00;99648.00;1784384;81;20163;-83
2021/05/15 02:41:41;;;;;;;;;;;;;;;11.71;100.00;99646.80;1783807;81;20147;-84
2021/05/15 02:44:07;;;;;;;;;;;;;;;11.73;100.00;99648.28;1784233;81;20163;-84
2021/05/15 02:46:36;;;;;;;;;;;;;;;11.77;100.00;99649.61;1784329;80;20464;-85
2021/05/15 02:49:03;;;;;;;;;;;;;;;11.81;100.00;99642.44;1784010;81;20256;-83
2021/05/15 02:51:30;;;;;;;;;;;;;;;11.83;100.00;99646.65;1784414;81;20142;-83
2021/05/15 02:53:57;;;;;;;;;;;;;;;11.88;100.00;99654.19;1784364;81;20186;-82
2021/05/15 02:56:25;;;;;;;;;;;;;;;11.91;100.00;99653.33;1782623;81;20171;-84
2021/05/15 02:59:03;;;;;;;;;;;;;;;11.94;100.00;99654.31;1784610;81;20105;-85
2021/05/15 03:01:35;;;;;;;;;;;;;;;11.99;100.00;99656.95;1759836;81;20208;-85
2021/05/15 03:04:05;;;;;;;;;;;;;;;12.03;100.00;99664.53;1783974;80;20187;-84
2021/05/15 03:06:36;;;;;;;;;;;;;;;12.08;100.00;99663.45;1771679;81;20168;-86
2021/05/15 03:09:08;;;;;;;;;;;;;;;12.09;100.00;99658.86;1769530;81;20160;-83
2021/05/15 03:11:36;;;;;;;;;;;;;;;12.10;100.00;99657.31;1748176;81;20196;-83
2021/05/15 03:14:04;;;;;;;;;;;;;;;12.14;100.00;99660.48;1769147;81;20110;-83
2021/05/15 03:16:33;;;;;;;;;;;;;;;12.15;100.00;99663.01;1768853;81;20164;-84
2021/05/15 03:18:59;;;;;;;;;;;;;;;12.21;100.00;99661.92;1773710;81;20183;-83
2021/05/15 03:21:26;;;;;;;;;;;;;;;12.25;100.00;99665.44;1783135;80;20133;-83
2021/05/15 03:23:55;;;;;;;;;;;;;;;12.30;100.00;99662.95;1782984;81;20194;-83
2021/05/15 03:26:22;;;;;;;;;;;;;;;12.35;100.00;99665.11;1782701;81;20189;-82
2021/05/15 03:28:48;;;;;;;;;;;;;;;12.39;100.00;99662.85;1782886;81;20212;-83
2021/05/15 03:31:15;;;;;;;;;;;;;;;12.39;100.00;99650.13;1782950;81;20179;-83
2021/05/15 03:33:42;;;;;;;;;;;;;;;12.42;100.00;99650.27;1783108;81;20164;-82
2021/05/15 03:36:13;;;;;;;;;;;;;;;12.43;100.00;99662.78;1783011;81;20156;-84
2021/05/15 03:38:40;;;;;;;;;;;;;;;12.43;100.00;99659.58;1782891;81;20493;-83
2021/05/15 03:41:07;;;;;;;;;;;;;;;12.43;100.00;99662.29;1782699;81;20144;-81
2021/05/15 03:43:36;;;;;;;;;;;;;;;12.44;100.00;99659.88;1783003;81;20171;-84
2021/05/15 03:46:02;;;;;;;;;;;;;;;12.46;100.00;99668.66;1783321;79;20147;-81
2021/05/15 03:48:32;;;;;;;;;;;;;;;12.50;100.00;99674.04;1783004;77;20156;-84
2021/05/15 03:51:00;;;;;;;;;;;;;;;12.57;100.00;99668.70;1782720;77;20137;-82
2021/05/15 03:53:27;;;;;;;;;;;;;;;12.65;100.00;99675.33;1783287;77;20151;-84
2021/05/15 03:55:54;;;;;;;;;;;;;;;12.72;100.00;99678.11;1782649;81;20179;-84
2021/05/15 03:58:21;;;;;;;;;;;;;;;12.77;100.00;99678.90;1782765;81;20139;-81
2021/05/15 04:00:48;;;;;;;;;;;;;;;12.80;100.00;99679.34;1782648;81;20163;-79
2021/05/15 04:03:15;;;;;;;;;;;;;;;12.84;100.00;99681.98;1782844;81;20520;-81
2021/05/15 04:05:42;;;;;;;;;;;;;;;12.89;100.00;99677.31;1778368;81;20144;-81
2021/05/15 04:08:08;;;;;;;;;;;;;;;12.94;100.00;99672.14;1770444;81;20172;-83
2021/05/15 04:10:37;;;;;;;;;;;;;;;13.00;100.00;99677.33;1770518;81;20132;-83
2021/05/15 04:13:15;;;;;;;;;;;;;;;13.04;100.00;99664.51;1770343;81;20180;-82
2021/05/15 04:15:39;;;;;;;;;;;;;;;13.09;100.00;99669.36;1771168;81;20164;-82
2021/05/15 04:18:12;;;;;;;;;;;;;;;13.15;100.00;99669.09;1766945;81;20168;-82
2021/05/15 04:20:42;;;;;;;;;;;;;;;13.23;100.00;99670.31;1715827;84;20184;-82
2021/05/15 04:23:09;;;;;;;;;;;;;;;13.31;100.00;99671.53;1715912;84;20156;-83
2021/05/15 04:25:36;;;;;;;;;;;;;;;13.41;100.00;99676.10;1715560;84;20167;-81
2021/05/15 04:28:04;;;;;;;;;;;;;;;13.56;100.00;99680.05;1715288;84;20248;-83
2021/05/15 04:30:31;;;;;;;;;;;;;;;13.75;100.00;99664.08;1715595;83;20181;-81
2021/05/15 04:33:01;;;;;;;;;;;;;;;13.94;100.00;99666.06;1715062;84;20156;-82
2021/05/15 04:35:27;;;;;;;;;;;;;;;14.14;100.00;99672.92;1715409;84;20204;-80
2021/05/15 04:37:54;;;;;;;;;;;;;;;14.35;100.00;99669.23;1716041;84;20192;-80
2021/05/15 04:40:20;;;;;;;;;;;;;;;14.52;100.00;99663.41;1716291;84;20141;-82
2021/05/15 04:42:47;;;;;;;;;;;;;;;14.68;100.00;99654.05;1716171;84;20149;-81
2021/05/15 04:45:14;;;;;;;;;;;;;;;14.81;100.00;99652.19;1716081;84;20281;-83
2021/05/15 04:47:42;;;;;;;;;;;;;;;14.96;100.00;99649.28;1716116;84;20149;-82
2021/05/15 04:50:10;;;;;;;;;;;;;;;15.09;100.00;99651.16;1716318;84;20144;-82
2021/05/15 04:52:37;;;;;;;;;;;;;;;15.21;100.00;99654.09;1716032;84;20152;-82
2021/05/15 04:55:05;;;;;;;;;;;;;;;15.33;100.00;99661.94;1715585;84;20321;-82
2021/05/15 04:57:33;;;;;;;;;;;;;;;15.43;100.00;99660.13;1715476;84;20153;-81
2021/05/15 05:00:01;;;;;;;;;;;;;;;15.51;100.00;99661.28;1715980;84;20153;-79
2021/05/15 05:02:28;;;;;;;;;;;;;;;15.57;100.00;99659.05;1715731;84;20176;-81
2021/05/15 05:04:54;;;;;;;;;;;;;;;15.69;100.00;99658.41;1714507;84;20184;-83
2021/05/15 05:07:23;;;;;;;;;;;;;;;15.78;100.00;99659.88;1746209;82;20201;-76
2021/05/15 05:09:51;;;;;;;;;;;;;;;15.90;100.00;99659.52;1747718;82;20150;-76
2021/05/15 05:12:18;;;;;;;;;;;;;;;16.04;100.00;99658.95;1749624;82;20158;-82
2021/05/15 05:14:45;;;;;;;;;;;;;;;16.17;100.00;99662.67;1750064;82;20154;-78
2021/05/15 05:17:12;;;;;;;;;;;;;;;16.28;100.00;99664.17;1766946;80;20155;-76
2021/05/15 05:19:39;;;;;;;;;;;;;;;16.41;100.00;99661.89;1789582;80;20152;-76
2021/05/15 05:22:11;;;;;;;;;;;;;;;16.60;100.00;99656.55;1791009;80;20139;-80
2021/05/15 05:24:40;;;;;;;;;;;;;;;16.73;100.00;99666.00;1789826;80;20192;-78
2021/05/15 05:27:08;;;;;;;;;;;;;;;16.91;100.00;99665.80;1782842;81;20183;-75
2021/05/15 05:29:37;;;;;;;;;;;;;;;17.04;100.00;99664.34;1784058;81;20159;-76
2021/05/15 05:32:05;;;;;;;;;;;;;;;17.19;100.00;99655.30;1740721;81;20196;-77
2021/05/15 05:34:32;;;;;;;;;;;;;;;17.32;100.00;99653.51;1752683;81;20148;-76
2021/05/15 05:36:58;;;;;;;;;;;;;;;17.49;100.00;99656.47;1782918;81;20482;-75
2021/05/15 05:39:25;;;;;;;;;;;;;;;17.61;100.00;99654.12;1784491;81;20155;-80
2021/05/15 05:41:52;;;;;;;;;;;;;;;17.60;100.00;99662.55;1784585;81;20132;-79
2021/05/15 05:44:19;;;;;;;;;;;;;;;17.67;100.00;99666.08;1783649;81;20171;-77
2021/05/15 05:46:48;;;;;;;;;;;;;;;17.83;100.00;99658.64;1783816;79;20132;-76
2021/05/15 05:49:14;;;;;;;;;;;;;;;18.05;100.00;99664.20;1777174;79;20216;-79
2021/05/15 05:51:41;;;;;;;;;;;;;;;18.20;100.00;99667.36;1783531;80;20496;-79
2021/05/15 05:54:10;;;;;;;;;;;;;;;18.34;100.00;99665.28;1787711;80;20136;-77
2021/05/15 05:56:37;;;;;;;;;;;;;;;18.50;100.00;99667.41;1700393;84;20224;-78
2021/05/15 05:59:04;;;;;;;;;;;;;;;18.65;100.00;99661.48;1717994;83;20223;-77
2021/05/15 06:01:31;;;;;;;;;;;;;;;18.80;100.00;99661.05;1729226;83;20258;-78
2021/05/15 06:03:58;;;;;;;;;;;;;;;18.86;100.00;99654.67;1727851;82;20191;-79
2021/05/15 06:06:24;;;;;;;;;;;;;;;18.89;100.00;99652.84;1745937;81;20198;-79
2021/05/15 06:08:53;;;;;;;;;;;;;;;18.96;100.00;99649.97;1770709;81;20160;-79
2021/05/15 06:11:22;;;;;;;;;;;;;;;19.15;100.00;99646.06;1766089;81;20161;-77
2021/05/15 06:13:50;;;;;;;;;;;;;;;19.18;100.00;99646.14;1731213;81;20191;-77
2021/05/15 06:16:17;;;;;;;;;;;;;;;19.34;100.00;99644.05;1715097;83;20187;-77
2021/05/15 06:18:45;;;;;;;;;;;;;;;19.58;100.00;99647.32;1708432;84;20205;-77
2021/05/15 06:21:26;;;;;;;;;;;;;;;19.69;100.00;99643.75;1734166;82;20154;-82
2021/05/15 06:23:53;;;;;;;;;;;;;;;19.68;100.00;99646.18;1740558;82;20318;-79
2021/05/15 06:26:23;;;;;;;;;;;;;;;19.84;100.00;99650.95;1716063;82;20238;-79
2021/05/15 06:28:51;;;;;;;;;;;;;;;20.15;100.00;99657.09;1752497;81;20230;-79
2021/05/15 06:31:19;;;;;;;;;;;;;;;20.36;100.00;99652.84;1730373;82;20210;-79
2021/05/15 06:33:46;;;;;;;;;;;;;;;20.54;100.00;99646.83;1717499;83;20556;-76
2021/05/15 06:36:14;;;;;;;;;;;;;;;20.60;100.00;99649.44;1738210;83;20229;-80
2021/05/15 06:38:42;;;;;;;;;;;;;;;20.78;100.00;99642.09;1738262;82;20158;-82
2021/05/15 06:41:11;;;;;;;;;;;;;;;20.91;100.00;99653.30;1729910;82;20219;-80
2021/05/15 06:43:38;;;;;;;;;;;;;;;20.79;100.00;99650.64;1728674;83;20243;-77
2021/05/15 06:46:05;;;;;;;;;;;;;;;20.75;100.00;99660.44;1703362;82;20208;-78
2021/05/15 06:48:33;;;;;;;;;;;;;;;20.82;100.00;99657.84;1731499;81;20167;-83
2021/05/15 06:51:02;;;;;;;;;;;;;;;21.02;100.00;99655.97;1729532;83;20139;-83
2021/05/15 06:53:31;;;;;;;;;;;;;;;21.31;100.00;99652.30;1754895;79;20142;-81
2021/05/15 06:55:57;;;;;;;;;;;;;;;21.60;100.00;99652.51;1805270;79;20163;-78
2021/05/15 06:58:25;;;;;;;;;;;;;;;21.80;100.00;99655.25;1809017;79;20184;-80
2021/05/15 07:00:51;;;;;;;;;;;;;;;21.91;100.00;99656.22;1783846;80;20153;-83
2021/05/15 07:03:18;;;;;;;;;;;;;;;22.04;100.00;99653.06;1799383;80;20207;-80
2021/05/15 07:05:46;;;;;;;;;;;;;;;22.12;100.00;99648.50;1786533;79;20152;-84
2021/05/15 07:08:14;;;;;;;;;;;;;;;22.20;100.00;99656.84;1806483;79;20175;-82
2021/05/15 07:10:42;;;;;;;;;;;;;;;22.31;100.00;99657.30;1783977;81;20195;-83
2021/05/15 07:13:11;;;;;;;;;;;;;;;22.34;100.00;99655.38;1783889;81;20175;-79
2021/05/15 07:15:38;;;;;;;;;;;;;;;22.49;100.00;99672.64;1784404;81;20139;-83
2021/05/15 07:18:04;;;;;;;;;;;;;;;22.66;100.00;99666.19;1783481;81;20217;-82
2021/05/15 07:20:36;;;;;;;;;;;;;;;22.77;100.00;99667.13;1784781;81;20155;-81
2021/05/15 07:23:07;;;;;;;;;;;;;;;22.90;100.00;99675.80;1784803;81;20163;-82
2021/05/15 07:25:39;;;;;;;;;;;;;;;22.91;100.00;99667.83;1763422;81;20203;-80
2021/05/15 07:28:08;;;;;;;;;;;;;;;22.98;100.00;99670.34;1784630;80;20148;-81
2021/05/15 07:30:36;;;;;;;;;;;;;;;22.96;100.00;99666.20;1789275;79;20165;-81
2021/05/15 07:33:03;;;;;;;;;;;;;;;23.02;100.00;99664.61;1815329;79;20153;-84
2021/05/15 07:35:30;;;;;;;;;;;;;;;23.05;100.00;99670.99;1794405;77;20241;-77
2021/05/15 07:37:57;;;;;;;;;;;;;;;23.37;100.00;99674.28;1816230;77;20143;-78
2021/05/15 07:40:25;;;;;;;;;;;;;;;23.75;100.00;99668.20;1816980;77;20132;-77
2021/05/15 07:42:52;;;;;;;;;;;;;;;23.93;100.00;99666.11;1815900;79;20157;-75
2021/05/15 07:45:18;;;;;;;;;;;;;;;23.88;100.00;99670.48;1815000;79;20165;-76
2021/05/15 07:47:46;;;;;;;;;;;;;;;23.79;100.00;99679.53;1814772;79;20169;-78
2021/05/15 07:50:13;;;;;;;;;;;;;;;23.64;100.00;99675.58;1812241;79;20498;-81
2021/05/15 07:52:40;;;;;;;;;;;;;;;23.49;100.00;99679.61;1783843;81;20132;-77
2021/05/15 07:55:07;;;;;;;;;;;;;;;23.49;100.00;99678.23;1783344;81;20163;-78
2021/05/15 07:57:34;;;;;;;;;;;;;;;23.41;100.00;99683.70;1783640;81;20180;-78
2021/05/15 08:00:01;;;;;;;;;;;;;;;23.45;100.00;99675.73;1783528;81;20175;-83
2021/05/15 08:02:31;;;;;;;;;;;;;;;23.27;100.00;99677.80;1784316;81;20172;-81
2021/05/15 08:04:58;;;;;;;;;;;;;;;23.22;100.00;99678.32;1784419;81;20622;-83
2021/05/15 08:07:25;;;;;;;;;;;;;;;23.36;100.00;99686.42;1783887;81;20155;-81
2021/05/15 08:09:51;;;;;;;;;;;;;;;23.69;100.00;99675.63;1783274;79;20149;-75
2021/05/15 08:12:18;;;;;;;;;;;;;;;23.87;100.00;99673.55;1782205;80;20565;-79
2021/05/15 08:14:45;;;;;;;;;;;;;;;23.99;100.00;99676.92;1782175;80;20157;-82
2021/05/15 08:17:11;;;;;;;;;;;;;;;24.02;100.00;99674.98;1776903;81;20176;-75
2021/05/15 08:19:39;;;;;;;;;;;;;;;24.01;100.00;99680.77;1767315;81;20160;-80
2021/05/15 08:22:06;;;;;;;;;;;;;;;24.02;100.00;99682.44;1767173;81;20148;-84
2021/05/15 08:24:33;;;;;;;;;;;;;;;24.11;100.00;99691.87;1767938;80;20216;-79
2021/05/15 08:27:03;;;;;;;;;;;;;;;24.12;100.00;99683.05;1773815;81;20690;-81
2021/05/15 08:29:32;;;;;;;;;;;;;;;24.14;100.00;99684.44;1779375;80;20163;-81
2021/05/15 08:32:00;;;;;;;;;;;;;;;24.23;100.00;99678.66;1782664;81;20496;-77
2021/05/15 08:34:28;;;;;;;;;;;;;;;24.31;100.00;99687.53;1783552;81;20183;-79
2021/05/15 08:36:54;;;;;;;;;;;;;;;24.33;100.00;99677.03;1783187;81;20175;-80
2021/05/15 08:39:21;;;;;;;;;;;;;;;24.31;99.83;99678.71;1782887;81;20472;-81
2021/05/15 08:41:49;;;;;;;;;;;;;;;24.36;100.00;99686.98;1782392;80;20148;-82
2021/05/15 08:44:16;;;;;;;;;;;;;;;24.53;100.00;99683.20;1781773;80;20171;-76
2021/05/15 08:46:43;;;;;;;;;;;;;;;24.66;100.00;99688.78;1783248;81;20147;-80
2021/05/15 08:49:11;;;;;;;;;;;;;;;24.61;98.46;99699.26;1810155;79;20161;-79
2021/05/15 08:51:38;;;;;;;;;;;;;;;24.50;97.56;99680.41;1814367;79;20173;-81
2021/05/15 08:54:05;;;;;;;;;;;;;;;24.51;100.00;99692.31;1814074;79;20141;-82
2021/05/15 08:56:31;;;;;;;;;;;;;;;24.67;100.00;99680.22;1818764;79;20169;-77
2021/05/15 08:58:59;;;;;;;;;;;;;;;24.79;96.51;99692.41;1813896;79;20170;-83
2021/05/15 09:01:26;;;;;;;;;;;;;;;24.72;95.75;99688.52;1810595;79;20149;-79
2021/05/15 09:03:53;;;;;;;;;;;;;;;24.77;97.67;99678.86;1781222;80;20182;-83
2021/05/15 09:06:20;;;;;;;;;;;;;;;24.73;99.04;99681.87;1781040;80;20158;-77
2021/05/15 09:08:51;;;;;;;;;;;;;;;24.53;100.00;99688.20;1767677;81;20168;-81
2021/05/15 09:11:17;;;;;;;;;;;;;;;24.60;99.03;99681.85;1800297;80;20165;-80
2021/05/15 09:13:53;;;;;;;;;;;;;;;24.66;96.87;99679.92;1801629;79;20479;-75
2021/05/15 09:16:19;;;;;;;;;;;;;;;24.70;97.13;99683.83;1801739;80;20146;-77
2021/05/15 09:18:47;;;;;;;;;;;;;;;24.84;91.99;99684.09;1795212;79;20171;-83
2021/05/15 09:21:17;;;;;;;;;;;;;;;24.81;95.25;99673.61;1770550;81;20216;-77
2021/05/15 09:23:45;;;;;;;;;;;;;;;24.75;98.23;99678.84;1781989;80;20241;-77
2021/05/15 09:26:16;;;;;;;;;;;;;;;24.96;100.00;99684.67;1784907;80;20150;-81
2021/05/15 09:28:48;;;;;;;;;;;;;;;25.21;100.00;99683.02;1780716;81;20161;-77
2021/05/15 09:31:19;;;;;;;;;;;;;;;25.26;94.98;99686.38;1781001;81;20146;-78
2021/05/15 09:33:48;;;;;;;;;;;;;;;25.15;97.57;99682.76;1779513;80;20507;-78
2021/05/15 09:36:28;;;;;;;;;;;;;;;25.08;98.14;99684.41;1767922;81;20167;-78
2021/05/15 09:39:19;;;;;;;;;;;;;;;25.04;97.28;99683.31;1652678;85;20181;-76
2021/05/15 09:41:49;;;;;;;;;;;;;;;25.18;96.24;99680.83;1729061;82;20166;-82
2021/05/15 09:44:19;;;;;;;;;;;;;;;25.35;95.18;99687.48;1720121;83;20578;-78
2021/05/15 09:46:47;;;;;;;;;;;;;;;25.64;96.25;99673.04;1736768;83;20154;-78
2021/05/15 09:49:14;;;;;;;;;;;;;;;25.96;91.83;99681.04;1736659;83;20205;-80
2021/05/15 09:51:56;;;;;;;;;;;;;;;26.19;88.92;99682.88;1736956;83;20174;-79
2021/05/15 09:54:27;;;;;;;;;;;;;;;26.21;87.19;99681.49;1735550;82;20181;-80
2021/05/15 09:57:09;;;;;;;;;;;;;;;26.18;91.34;99684.83;1736860;82;20167;-81
2021/05/15 09:59:41;;;;;;;;;;;;;;;26.23;87.60;99682.59;1734786;83;20185;-80
2021/05/15 10:02:10;;;;;;;;;;;;;;;26.08;92.71;99674.63;1736722;83;20195;-79
2021/05/15 10:04:36;;;;;;;;;;;;;;;26.05;88.26;99677.95;1736089;83;20186;-78
2021/05/15 10:07:03;;;;;;;;;;;;;;;25.89;91.78;99680.48;1738448;82;20252;-77
2021/05/15 10:09:34;;;;;;;;;;;;;;;25.79;95.80;99672.19;1743531;82;20162;-77
2021/05/15 10:12:04;;;;;;;;;;;;;;;25.98;94.75;99692.66;1743626;82;20470;-76
2021/05/15 10:14:32;;;;;;;;;;;;;;;26.23;89.96;99677.88;1743537;82;20205;-75
2021/05/15 10:17:01;;;;;;;;;;;;;;;26.39;89.47;99681.97;1793766;79;20174;-75
2021/05/15 10:19:28;;;;;;;;;;;;;;;26.10;87.85;99668.77;1778599;80;20159;-76
2021/05/15 10:21:56;;;;;;;;;;;;;;;25.73;89.99;99685.23;1779223;80;20191;-75
2021/05/15 10:24:26;;;;;;;;;;;;;;;25.58;94.31;99687.45;1781738;81;20206;-75
2021/05/15 10:27:11;;;;;;;;;;;;;;;25.48;93.96;99681.39;1781910;80;20175;-75
2021/05/15 10:29:51;;;;;;;;;;;;;;;25.31;94.24;99687.77;1781539;81;20168;-76
2021/05/15 10:32:23;;;;;;;;;;;;;;;25.24;97.67;99679.70;1781746;81;20163;-76
2021/05/15 10:35:03;;;;;;;;;;;;;;;25.46;98.79;99683.61;1781915;81;20147;-75
2021/05/15 10:37:31;;;;;;;;;;;;;;;25.58;94.72;99675.00;1780298;81;20136;-76
2021/05/15 10:39:58;;;;;;;;;;;;;;;25.58;94.92;99681.91;1777630;81;20145;-79
2021/05/15 10:42:30;;;;;;;;;;;;;;;25.56;91.73;99679.98;1777407;81;20496;-80
2021/05/15 10:44:58;;;;;;;;;;;;;;;25.60;88.58;99676.92;1778183;80;20196;-81
2021/05/15 10:47:24;;;;;;;;;;;;;;;25.59;92.64;99672.52;1779551;81;20140;-78
2021/05/15 10:49:54;;;;;;;;;;;;;;;25.54;93.37;99672.52;1783893;81;20163;-83
2021/05/15 10:52:24;;;;;;;;;;;;;;;25.45;95.79;99666.72;1742817;80;20510;-77
2021/05/15 10:55:02;;;;;;;;;;;;;;;25.51;95.43;99682.77;1783689;80;20182;-77
2021/05/15 10:57:31;;;;;;;;;;;;;;;25.45;90.84;99673.64;1782386;80;20525;-79
2021/05/15 10:59:58;;;;;;;;;;;;;;;25.23;92.75;99673.06;1783259;81;20476;-79
2021/05/15 11:02:37;;;;;;;;;;;;;;;25.08;95.03;99671.96;1781968;81;20163;-79
2021/05/15 11:05:13;;;;;;;;;;;;;;;25.15;96.54;99674.45;1783043;81;20164;-78
2021/05/15 11:07:42;;;;;;;;;;;;;;;25.43;94.93;99671.71;1740987;82;20194;-78
2021/05/15 11:10:11;;;;;;;;;;;;;;;25.78;92.61;99674.11;1741620;82;20198;-79
2021/05/15 11:12:44;;;;;;;;;;;;;;;26.04;92.25;99664.38;1742208;82;20198;-79
2021/05/15 11:15:13;;;;;;;;;;;;;;;26.32;88.95;99662.31;1742620;80;20122;-79
2021/05/15 11:17:41;;;;;;;;;;;;;;;26.50;83.08;99673.86;1747969;80;20135;-78
2021/05/15 11:23:15;;;;;;;;;;;;;;;26.67;85.92;99648.00;1726708;77;20179;-76
2021/05/15 11:26:12;;;;;;;;;;;;;;;26.70;81.86;99649.36;1677085;82;20147;-78
2021/05/15 11:28:48;;;;;;;;;;;;;;;26.44;85.72;99658.39;1565308;87;20279;-78
2021/05/15 11:31:18;;;;;;;;;;;;;;;26.19;88.29;99663.48;1597441;85;20313;-79
2021/05/15 11:33:45;;;;;;;;;;;;;;;25.94;88.27;99667.47;1616377;89;20185;-75
2021/05/15 11:36:14;;;;;;;;;;;;;;;25.69;91.27;99645.34;1615876;87;20692;-77
2021/05/15 11:38:40;;;;;;;;;;;;;;;25.63;92.41;99658.94;1616721;89;20509;-79
2021/05/15 11:41:07;;;;;;;;;;;;;;;25.61;88.77;99643.99;1618149;89;20161;-79
2021/05/15 11:43:39;;;;;;;;;;;;;;;25.44;92.07;99637.94;1617430;87;20246;-77
2021/05/15 11:46:25;;;;;;;;;;;;;;;25.48;93.94;99647.33;1620525;85;20205;-78
2021/05/15 11:49:13;;;;;;;;;;;;;;;25.71;91.51;99648.13;1510072;88;20208;-78
2021/05/15 11:51:40;;;;;;;;;;;;;;;25.86;89.82;99644.47;1581843;88;20277;-76
2021/05/15 11:54:39;;;;;;;;;;;;;;;26.05;91.09;99639.73;1544613;87;20223;31
2021/05/15 12:13:38;;;;;;;;;;;;;;;25.48;95.67;99630.72;1679827;81;20141;-80
2021/05/15 12:16:15;;;;;;;;;;;;;;;25.77;94.43;99621.25;1732747;82;20125;-78
2021/05/15 12:18:44;;;;;;;;;;;;;;;25.94;92.40;99627.31;1732424;82;20178;-78
2021/05/15 12:21:39;;;;;;;;;;;;;;;25.77;98.92;99622.63;1726277;83;20193;-79
2021/05/15 12:24:09;;;;;;;;;;;;;;;25.50;100.00;99625.20;1728321;83;20516;-80
2021/05/15 12:26:36;;;;;;;;;;;;;;;25.41;100.00;99619.11;1730315;83;20165;-79
2021/05/15 12:29:03;;;;;;;;;;;;;;;25.58;100.00;99622.40;1730016;83;20186;-79
2021/05/15 12:31:32;;;;;;;;;;;;;;;25.71;100.00;99613.52;1730247;83;20146;-78
2021/05/15 12:33:59;;;;;;;;;;;;;;;25.74;100.00;99621.80;1730592;83;20490;-80
2021/05/15 12:36:33;;;;;;;;;;;;;;;25.62;97.32;99616.59;1729802;83;20542;-77
2021/05/15 12:39:00;;;;;;;;;;;;;;;25.70;99.08;99611.84;1730285;83;20178;-77
2021/05/15 12:41:36;;;;;;;;;;;;;;;26.07;98.28;99616.16;1730849;83;20138;-78
2021/05/15 12:44:13;;;;;;;;;;;;;;;26.22;95.96;99606.94;1717216;83;20188;-78
2021/05/15 12:46:41;;;;;;;;;;;;;;;26.22;94.97;99612.47;1656094;87;20165;-80
2021/05/15 12:49:11;;;;;;;;;;;;;;;26.21;92.84;99610.84;1652757;86;20181;-82
2021/05/15 12:51:47;;;;;;;;;;;;;;;26.09;96.02;99607.58;1652187;87;20169;-76
2021/05/15 12:54:17;;;;;;;;;;;;;;;26.06;95.86;99618.65;1607101;89;20236;-78
2021/05/15 12:56:53;;;;;;;;;;;;;;;26.16;93.07;99621.13;1607412;89;20162;-77
2021/05/15 12:59:33;;;;;;;;;;;;;;;26.30;93.39;99613.27;1607512;89;20303;-80
2021/05/15 13:02:12;;;;;;;;;;;;;;;26.47;94.45;99610.67;1607447;89;20529;-77
2021/05/15 13:04:40;;;;;;;;;;;;;;;26.50;92.23;99610.10;1607430;89;20173;-79
2021/05/15 13:07:09;;;;;;;;;;;;;;;26.67;92.84;99602.82;1615891;89;20184;-83
2021/05/15 13:09:43;;;;;;;;;;;;;;;26.80;89.13;99599.94;1618895;89;20165;-79